sensor_id;sensor_type;location;lat;lon;timestamp;pressure;altitude;pressure_sealevel;temperature;humidity
38197;BME280;26543;51.976;4.616;2023-05-07T00:00:27;52715.53;;;-140.72;100.00
38197;BME280;26543;51.976;4.616;2023-05-07T00:02:53;52731.75;;;-140.72;100.00
38197;BME280;26543;51.976;4.616;2023-05-07T00:05:25;52719.59;;;-140.72;100.00
38197;BME280;26543;51.976;4.616;2023-05-07T00:07:50;52721.63;;;-140.72;100.00
38197;BME280;26543;51.976;4.616;2023-05-07T00:10:17;52699.31;;;-140.72;100.00
38197;BME280;26543;51.976;4.616;2023-05-07T00:12:43;52733.78;;;-140.72;100.00
38197;BME280;26543;51.976;4.616;2023-05-07T00:15:08;52723.66;;;-140.72;100.00
38197;BME280;26543;51.976;4.616;2023-05-07T00:17:33;52719.59;;;-140.72;100.00
38197;BME280;26543;51.976;4.616;2023-05-07T00:19:59;52723.66;;;-140.72;100.00
38197;BME280;26543;51.976;4.616;2023-05-07T00:22:24;52741.91;;;-140.72;100.00
38197;BME280;26543;51.976;4.616;2023-05-07T00:24:49;52695.25;;;-140.72;100.00
38197;BME280;26543;51.976;4.616;2023-05-07T00:27:14;52711.47;;;-140.72;100.00
38197;BME280;26543;51.976;4.616;2023-05-07T00:29:40;52715.53;;;-140.72;100.00
38197;BME280;26543;51.976;4.616;2023-05-07T00:32:05;52715.53;;;-140.72;100.00
38197;BME280;26543;51.976;4.616;2023-05-07T00:34:30;52683.06;;;-140.72;100.00
38197;BME280;26543;51.976;4.616;2023-05-07T00:36:55;52729.75;;;-140.72;100.00
38197;BME280;26543;51.976;4.616;2023-05-07T00:39:20;52707.41;;;-140.72;100.00
38197;BME280;26543;51.976;4.616;2023-05-07T00:41:46;52691.19;;;-140.72;100.00
38197;BME280;26543;51.976;4.616;2023-05-07T00:44:12;52697.28;;;-140.72;100.00
38197;BME280;26543;51.976;4.616;2023-05-07T00:46:37;52743.94;;;-140.72;100.00
38197;BME280;26543;51.976;4.616;2023-05-07T00:49:02;52743.94;;;-140.72;100.00
38197;BME280;26543;51.976;4.616;2023-05-07T00:51:28;52695.25;;;-140.72;100.00
38197;BME280;26543;51.976;4.616;2023-05-07T00:53:53;52737.84;;;-140.72;100.00
38197;BME280;26543;51.976;4.616;2023-05-07T00:56:19;52729.75;;;-140.72;100.00
38197;BME280;26543;51.976;4.616;2023-05-07T00:58:45;52760.19;;;-140.72;100.00
38197;BME280;26543;51.976;4.616;2023-05-07T01:01:10;52752.06;;;-140.72;100.00
38197;BME280;26543;51.976;4.616;2023-05-07T01:03:36;52727.72;;;-140.72;100.00
38197;BME280;26543;51.976;4.616;2023-05-07T01:06:01;52725.69;;;-140.72;100.00
38197;BME280;26543;51.976;4.616;2023-05-07T01:08:27;52717.56;;;-140.72;100.00
38197;BME280;26543;51.976;4.616;2023-05-07T01:10:54;52731.75;;;-140.72;100.00
38197;BME280;26543;51.976;4.616;2023-05-07T01:13:22;52739.88;;;-140.72;100.00
38197;BME280;26543;51.976;4.616;2023-05-07T01:15:47;52741.91;;;-140.72;100.00
38197;BME280;26543;51.976;4.616;2023-05-07T01:18:13;52715.53;;;-140.72;100.00
38197;BME280;26543;51.976;4.616;2023-05-07T01:20:38;52745.97;;;-140.72;100.00
38197;BME280;26543;51.976;4.616;2023-05-07T01:23:03;52729.75;;;-140.72;100.00
38197;BME280;26543;51.976;4.616;2023-05-07T01:25:30;52723.66;;;-140.72;100.00
38197;BME280;26543;51.976;4.616;2023-05-07T01:27:56;52731.75;;;-140.72;100.00
38197;BME280;26543;51.976;4.616;2023-05-07T01:30:22;52727.72;;;-140.72;100.00
38197;BME280;26543;51.976;4.616;2023-05-07T01:32:49;52717.56;;;-140.72;100.00
38197;BME280;26543;51.976;4.616;2023-05-07T01:35:19;52731.75;;;-140.72;100.00
38197;BME280;26543;51.976;4.616;2023-05-07T01:37:46;52721.63;;;-140.72;100.00
38197;BME280;26543;51.976;4.616;2023-05-07T01:40:12;52672.91;;;-140.72;100.00
38197;BME280;26543;51.976;4.616;2023-05-07T01:42:38;52737.84;;;-140.72;100.00
38197;BME280;26543;51.976;4.616;2023-05-07T01:45:03;52743.94;;;-140.72;100.00
38197;BME280;26543;51.976;4.616;2023-05-07T01:47:29;52756.13;;;-140.72;100.00
38197;BME280;26543;51.976;4.616;2023-05-07T01:49:54;52737.84;;;-140.72;100.00
38197;BME280;26543;51.976;4.616;2023-05-07T01:52:20;52774.38;;;-140.72;100.00
38197;BME280;26543;51.976;4.616;2023-05-07T01:54:45;52697.28;;;-140.72;100.00
38197;BME280;26543;51.976;4.616;2023-05-07T01:57:11;52711.47;;;-140.72;100.00
38197;BME280;26543;51.976;4.616;2023-05-07T01:59:36;52729.75;;;-140.72;100.00
38197;BME280;26543;51.976;4.616;2023-05-07T02:02:01;52745.97;;;-140.72;100.00
38197;BME280;26543;51.976;4.616;2023-05-07T02:04:26;52709.44;;;-140.72;100.00
38197;BME280;26543;51.976;4.616;2023-05-07T02:06:52;52764.25;;;-140.72;100.00
38197;BME280;26543;51.976;4.616;2023-05-07T02:09:17;52735.81;;;-140.72;100.00
38197;BME280;26543;51.976;4.616;2023-05-07T02:11:43;52721.63;;;-140.72;100.00
38197;BME280;26543;51.976;4.616;2023-05-07T02:14:08;52731.75;;;-140.72;100.00
38197;BME280;26543;51.976;4.616;2023-05-07T02:16:33;52723.66;;;-140.72;100.00
38197;BME280;26543;51.976;4.616;2023-05-07T02:18:58;52733.78;;;-140.72;100.00
38197;BME280;26543;51.976;4.616;2023-05-07T02:21:24;52731.75;;;-140.72;100.00
38197;BME280;26543;51.976;4.616;2023-05-07T02:23:51;52752.06;;;-140.72;100.00
38197;BME280;26543;51.976;4.616;2023-05-07T02:26:16;52743.94;;;-140.72;100.00
38197;BME280;26543;51.976;4.616;2023-05-07T02:28:51;52737.84;;;-140.72;100.00
38197;BME280;26543;51.976;4.616;2023-05-07T02:31:28;52745.97;;;-140.72;100.00
38197;BME280;26543;51.976;4.616;2023-05-07T02:33:53;52766.25;;;-140.72;100.00
38197;BME280;26543;51.976;4.616;2023-05-07T02:36:18;52748.00;;;-140.72;100.00
38197;BME280;26543;51.976;4.616;2023-05-07T02:38:43;52752.06;;;-140.72;100.00
38197;BME280;26543;51.976;4.616;2023-05-07T02:41:09;52713.50;;;-140.72;100.00
38197;BME280;26543;51.976;4.616;2023-05-07T02:43:34;52768.28;;;-140.72;100.00
38197;BME280;26543;51.976;4.616;2023-05-07T02:46:08;52723.66;;;-140.72;100.00
38197;BME280;26543;51.976;4.616;2023-05-07T02:48:34;52731.75;;;-140.72;100.00
38197;BME280;26543;51.976;4.616;2023-05-07T02:50:59;52737.84;;;-140.72;100.00
38197;BME280;26543;51.976;4.616;2023-05-07T02:53:25;52727.72;;;-140.72;100.00
38197;BME280;26543;51.976;4.616;2023-05-07T02:55:55;52723.66;;;-140.72;100.00
38197;BME280;26543;51.976;4.616;2023-05-07T02:58:20;52745.97;;;-140.72;100.00
38197;BME280;26543;51.976;4.616;2023-05-07T03:00:45;52752.06;;;-140.72;100.00
38197;BME280;26543;51.976;4.616;2023-05-07T03:03:11;52715.53;;;-140.72;100.00
38197;BME280;26543;51.976;4.616;2023-05-07T03:05:36;52715.53;;;-140.72;100.00
38197;BME280;26543;51.976;4.616;2023-05-07T03:08:02;52727.72;;;-140.72;100.00
38197;BME280;26543;51.976;4.616;2023-05-07T03:10:27;52758.16;;;-140.72;100.00
38197;BME280;26543;51.976;4.616;2023-05-07T03:12:52;52739.88;;;-140.72;100.00
38197;BME280;26543;51.976;4.616;2023-05-07T03:15:18;52745.97;;;-140.72;100.00
38197;BME280;26543;51.976;4.616;2023-05-07T03:17:43;52731.75;;;-140.72;100.00
38197;BME280;26543;51.976;4.616;2023-05-07T03:20:08;52750.03;;;-140.72;100.00
38197;BME280;26543;51.976;4.616;2023-05-07T03:22:34;52727.72;;;-140.72;100.00
38197;BME280;26543;51.976;4.616;2023-05-07T03:24:59;52764.25;;;-140.72;100.00
38197;BME280;26543;51.976;4.616;2023-05-07T03:27:25;52731.75;;;-140.72;100.00
38197;BME280;26543;51.976;4.616;2023-05-07T03:29:50;52717.56;;;-140.72;100.00
38197;BME280;26543;51.976;4.616;2023-05-07T03:32:15;52780.47;;;-140.72;100.00
38197;BME280;26543;51.976;4.616;2023-05-07T03:34:41;52760.19;;;-140.72;100.00
38197;BME280;26543;51.976;4.616;2023-05-07T03:37:06;52731.75;;;-140.72;100.00
38197;BME280;26543;51.976;4.616;2023-05-07T03:39:31;52723.66;;;-140.72;100.00
38197;BME280;26543;51.976;4.616;2023-05-07T03:41:57;52743.94;;;-140.72;100.00
38197;BME280;26543;51.976;4.616;2023-05-07T03:44:22;52784.53;;;-140.72;100.00
38197;BME280;26543;51.976;4.616;2023-05-07T03:46:47;52739.88;;;-140.72;100.00
38197;BME280;26543;51.976;4.616;2023-05-07T03:49:13;52737.84;;;-140.72;100.00
38197;BME280;26543;51.976;4.616;2023-05-07T03:51:38;52723.66;;;-140.72;100.00
38197;BME280;26543;51.976;4.616;2023-05-07T03:54:03;52764.25;;;-140.72;100.00
38197;BME280;26543;51.976;4.616;2023-05-07T03:56:28;52739.88;;;-140.72;100.00
38197;BME280;26543;51.976;4.616;2023-05-07T03:58:54;52756.13;;;-140.72;100.00
38197;BME280;26543;51.976;4.616;2023-05-07T04:01:19;52741.91;;;-140.72;100.00
38197;BME280;26543;51.976;4.616;2023-05-07T04:03:45;52768.28;;;-140.72;100.00
38197;BME280;26543;51.976;4.616;2023-05-07T04:06:10;52725.69;;;-140.72;100.00
38197;BME280;26543;51.976;4.616;2023-05-07T04:08:35;52743.94;;;-140.72;100.00
38197;BME280;26543;51.976;4.616;2023-05-07T04:11:00;52774.38;;;-140.72;100.00
38197;BME280;26543;51.976;4.616;2023-05-07T04:13:26;52719.59;;;-140.72;100.00
38197;BME280;26543;51.976;4.616;2023-05-07T04:15:51;52725.69;;;-140.72;100.00
38197;BME280;26543;51.976;4.616;2023-05-07T04:18:17;52717.56;;;-140.72;100.00
38197;BME280;26543;51.976;4.616;2023-05-07T04:20:42;52719.59;;;-140.72;100.00
38197;BME280;26543;51.976;4.616;2023-05-07T04:23:07;52772.34;;;-140.72;100.00
38197;BME280;26543;51.976;4.616;2023-05-07T04:25:33;52721.63;;;-140.72;100.00
38197;BME280;26543;51.976;4.616;2023-05-07T04:27:58;52752.06;;;-140.72;100.00
38197;BME280;26543;51.976;4.616;2023-05-07T04:30:24;52739.88;;;-140.72;100.00
38197;BME280;26543;51.976;4.616;2023-05-07T04:32:49;52723.66;;;-140.72;100.00
38197;BME280;26543;51.976;4.616;2023-05-07T04:35:14;52707.41;;;-140.72;100.00
38197;BME280;26543;51.976;4.616;2023-05-07T04:37:39;52739.88;;;-140.72;100.00
38197;BME280;26543;51.976;4.616;2023-05-07T04:40:05;52768.28;;;-140.72;100.00
38197;BME280;26543;51.976;4.616;2023-05-07T04:42:30;52756.13;;;-140.72;100.00
38197;BME280;26543;51.976;4.616;2023-05-07T04:44:56;52723.66;;;-140.72;100.00
38197;BME280;26543;51.976;4.616;2023-05-07T04:47:21;52731.75;;;-140.72;100.00
38197;BME280;26543;51.976;4.616;2023-05-07T04:49:46;52687.13;;;-140.72;100.00
38197;BME280;26543;51.976;4.616;2023-05-07T04:52:11;52752.06;;;-140.72;100.00
38197;BME280;26543;51.976;4.616;2023-05-07T04:54:37;52735.81;;;-140.72;100.00
38197;BME280;26543;51.976;4.616;2023-05-07T04:57:03;52735.81;;;-140.72;100.00
38197;BME280;26543;51.976;4.616;2023-05-07T04:59:28;52711.47;;;-140.72;100.00
38197;BME280;26543;51.976;4.616;2023-05-07T05:01:53;52719.59;;;-140.72;100.00
38197;BME280;26543;51.976;4.616;2023-05-07T05:04:19;52748.00;;;-140.72;100.00
38197;BME280;26543;51.976;4.616;2023-05-07T05:06:44;52713.50;;;-140.72;100.00
38197;BME280;26543;51.976;4.616;2023-05-07T05:09:09;52715.53;;;-140.72;100.00
38197;BME280;26543;51.976;4.616;2023-05-07T05:11:34;52719.59;;;-140.72;100.00
38197;BME280;26543;51.976;4.616;2023-05-07T05:14:00;52727.72;;;-140.72;100.00
38197;BME280;26543;51.976;4.616;2023-05-07T05:16:26;52727.72;;;-140.72;100.00
38197;BME280;26543;51.976;4.616;2023-05-07T05:18:52;52750.03;;;-140.72;100.00
38197;BME280;26543;51.976;4.616;2023-05-07T05:21:19;52721.63;;;-140.72;100.00
38197;BME280;26543;51.976;4.616;2023-05-07T05:23:44;52735.81;;;-140.72;100.00
38197;BME280;26543;51.976;4.616;2023-05-07T05:26:09;52721.63;;;-140.72;100.00
38197;BME280;26543;51.976;4.616;2023-05-07T05:28:35;52705.38;;;-140.72;100.00
38197;BME280;26543;51.976;4.616;2023-05-07T05:31:00;52741.91;;;-140.72;100.00
38197;BME280;26543;51.976;4.616;2023-05-07T05:33:25;52733.78;;;-140.72;100.00
38197;BME280;26543;51.976;4.616;2023-05-07T05:35:50;52725.69;;;-140.72;100.00
38197;BME280;26543;51.976;4.616;2023-05-07T05:38:16;52709.44;;;-140.72;100.00
38197;BME280;26543;51.976;4.616;2023-05-07T05:40:41;52737.84;;;-140.72;100.00
38197;BME280;26543;51.976;4.616;2023-05-07T05:43:06;52796.72;;;-140.72;100.00
38197;BME280;26543;51.976;4.616;2023-05-07T05:45:31;52719.59;;;-140.72;100.00
38197;BME280;26543;51.976;4.616;2023-05-07T05:47:57;52711.47;;;-140.72;100.00
38197;BME280;26543;51.976;4.616;2023-05-07T05:50:22;52723.66;;;-140.72;100.00
38197;BME280;26543;51.976;4.616;2023-05-07T05:52:47;52699.31;;;-140.72;100.00
38197;BME280;26543;51.976;4.616;2023-05-07T05:55:13;52703.34;;;-140.72;100.00
38197;BME280;26543;51.976;4.616;2023-05-07T05:57:38;52737.84;;;-140.72;100.00
38197;BME280;26543;51.976;4.616;2023-05-07T06:00:03;52711.47;;;-140.72;100.00
38197;BME280;26543;51.976;4.616;2023-05-07T06:02:29;52705.38;;;-140.72;100.00
38197;BME280;26543;51.976;4.616;2023-05-07T06:04:54;52715.53;;;-140.72;100.00
38197;BME280;26543;51.976;4.616;2023-05-07T06:07:20;52717.56;;;-140.72;100.00
38197;BME280;26543;51.976;4.616;2023-05-07T06:09:45;52735.81;;;-140.72;100.00
38197;BME280;26543;51.976;4.616;2023-05-07T06:12:11;52719.59;;;-140.72;100.00
38197;BME280;26543;51.976;4.616;2023-05-07T06:14:36;52731.75;;;-140.72;100.00
38197;BME280;26543;51.976;4.616;2023-05-07T06:17:01;52711.47;;;-140.72;100.00
38197;BME280;26543;51.976;4.616;2023-05-07T06:19:26;52719.59;;;-140.72;100.00
38197;BME280;26543;51.976;4.616;2023-05-07T06:21:53;52735.81;;;-140.72;100.00
38197;BME280;26543;51.976;4.616;2023-05-07T06:24:18;52695.25;;;-140.72;100.00
38197;BME280;26543;51.976;4.616;2023-05-07T06:26:43;52713.50;;;-140.72;100.00
38197;BME280;26543;51.976;4.616;2023-05-07T06:29:08;52772.34;;;-140.72;100.00
38197;BME280;26543;51.976;4.616;2023-05-07T06:31:34;52739.88;;;-140.72;100.00
38197;BME280;26543;51.976;4.616;2023-05-07T06:33:59;52672.91;;;-140.72;100.00
38197;BME280;26543;51.976;4.616;2023-05-07T06:36:40;52752.06;;;-140.72;100.00
38197;BME280;26543;51.976;4.616;2023-05-07T06:41:34;52745.97;;;-140.72;100.00
38197;BME280;26543;51.976;4.616;2023-05-07T06:44:00;52703.34;;;-140.72;100.00
38197;BME280;26543;51.976;4.616;2023-05-07T06:46:34;52727.72;;;-140.72;100.00
38197;BME280;26543;51.976;4.616;2023-05-07T06:48:59;52666.84;;;-140.72;100.00
38197;BME280;26543;51.976;4.616;2023-05-07T06:51:25;52707.41;;;-140.72;100.00
38197;BME280;26543;51.976;4.616;2023-05-07T06:53:50;52674.94;;;-140.72;100.00
38197;BME280;26543;51.976;4.616;2023-05-07T06:56:15;52668.84;;;-140.72;100.00
38197;BME280;26543;51.976;4.616;2023-05-07T06:58:40;52703.34;;;-140.72;100.00
38197;BME280;26543;51.976;4.616;2023-05-07T07:01:06;52697.28;;;-140.72;100.00
38197;BME280;26543;51.976;4.616;2023-05-07T07:03:31;52709.44;;;-140.72;100.00
38197;BME280;26543;51.976;4.616;2023-05-07T07:05:56;52683.06;;;-140.72;100.00
38197;BME280;26543;51.976;4.616;2023-05-07T07:08:21;52693.22;;;-140.72;100.00
38197;BME280;26543;51.976;4.616;2023-05-07T07:10:47;52650.59;;;-140.72;100.00
38197;BME280;26543;51.976;4.616;2023-05-07T07:13:13;52672.91;;;-140.72;100.00
38197;BME280;26543;51.976;4.616;2023-05-07T07:15:38;52668.84;;;-140.72;100.00
38197;BME280;26543;51.976;4.616;2023-05-07T07:18:03;52658.72;;;-140.72;100.00
38197;BME280;26543;51.976;4.616;2023-05-07T07:20:29;52676.97;;;-140.72;100.00
38197;BME280;26543;51.976;4.616;2023-05-07T07:22:54;52662.78;;;-140.72;100.00
38197;BME280;26543;51.976;4.616;2023-05-07T07:25:19;52626.25;;;-140.72;100.00
38197;BME280;26543;51.976;4.616;2023-05-07T07:27:45;52622.19;;;-140.72;100.00
38197;BME280;26543;51.976;4.616;2023-05-07T07:30:10;52632.34;;;-140.72;100.00
38197;BME280;26543;51.976;4.616;2023-05-07T07:32:35;52583.63;;;-140.72;100.00
38197;BME280;26543;51.976;4.616;2023-05-07T07:35:00;52624.22;;;-140.72;100.00
38197;BME280;26543;51.976;4.616;2023-05-07T07:37:26;52646.53;;;-140.72;100.00
38197;BME280;26543;51.976;4.616;2023-05-07T07:39:51;52624.22;;;-140.72;100.00
38197;BME280;26543;51.976;4.616;2023-05-07T07:42:17;52618.13;;;-140.72;100.00
38197;BME280;26543;51.976;4.616;2023-05-07T07:44:43;52620.16;;;-140.72;100.00
38197;BME280;26543;51.976;4.616;2023-05-07T07:47:08;52605.94;;;-140.72;100.00
38197;BME280;26543;51.976;4.616;2023-05-07T07:49:33;52636.38;;;-140.72;100.00
38197;BME280;26543;51.976;4.616;2023-05-07T07:51:59;52638.41;;;-140.72;100.00
38197;BME280;26543;51.976;4.616;2023-05-07T07:54:25;52603.94;;;-140.72;100.00
38197;BME280;26543;51.976;4.616;2023-05-07T07:56:50;52630.31;;;-140.72;100.00
38197;BME280;26543;51.976;4.616;2023-05-07T07:59:16;52597.84;;;-140.72;100.00
38197;BME280;26543;51.976;4.616;2023-05-07T08:01:43;52593.78;;;-140.72;100.00
38197;BME280;26543;51.976;4.616;2023-05-07T08:04:09;52616.09;;;-140.72;100.00
38197;BME280;26543;51.976;4.616;2023-05-07T08:06:34;52601.91;;;-140.72;100.00
38197;BME280;26543;51.976;4.616;2023-05-07T08:08:59;52569.44;;;-140.72;100.00
38197;BME280;26543;51.976;4.616;2023-05-07T08:11:25;52541.03;;;-140.72;100.00
38197;BME280;26543;51.976;4.616;2023-05-07T08:13:50;52498.41;;;-140.72;100.00
38197;BME280;26543;51.976;4.616;2023-05-07T08:16:15;52508.56;;;-140.72;100.00
38197;BME280;26543;51.976;4.616;2023-05-07T08:18:41;52520.72;;;-140.72;100.00
38197;BME280;26543;51.976;4.616;2023-05-07T08:21:06;52526.81;;;-140.72;100.00
38197;BME280;26543;51.976;4.616;2023-05-07T08:23:31;52508.56;;;-140.72;100.00
38197;BME280;26543;51.976;4.616;2023-05-07T08:25:56;52518.69;;;-140.72;100.00
38197;BME280;26543;51.976;4.616;2023-05-07T08:28:22;52522.75;;;-140.72;100.00
38197;BME280;26543;51.976;4.616;2023-05-07T08:30:50;52534.94;;;-140.72;100.00
38197;BME280;26543;51.976;4.616;2023-05-07T08:33:16;52506.53;;;-140.72;100.00
38197;BME280;26543;51.976;4.616;2023-05-07T08:35:41;52549.13;;;-140.72;100.00
38197;BME280;26543;51.976;4.616;2023-05-07T08:38:06;52512.59;;;-140.72;100.00
38197;BME280;26543;51.976;4.616;2023-05-07T08:40:33;52543.03;;;-140.72;100.00
38197;BME280;26543;51.976;4.616;2023-05-07T08:43:01;52514.63;;;-140.72;100.00
38197;BME280;26543;51.976;4.616;2023-05-07T08:45:27;52520.72;;;-140.72;100.00
38197;BME280;26543;51.976;4.616;2023-05-07T08:47:55;52553.19;;;-140.72;100.00
38197;BME280;26543;51.976;4.616;2023-05-07T08:50:23;52539.00;;;-140.72;100.00
38197;BME280;26543;51.976;4.616;2023-05-07T08:52:48;52541.03;;;-140.72;100.00
38197;BME280;26543;51.976;4.616;2023-05-07T08:55:14;52553.19;;;-140.72;100.00
38197;BME280;26543;51.976;4.616;2023-05-07T08:57:40;52518.69;;;-140.72;100.00
38197;BME280;26543;51.976;4.616;2023-05-07T09:00:05;52534.94;;;-140.72;100.00
38197;BME280;26543;51.976;4.616;2023-05-07T09:02:32;52514.63;;;-140.72;100.00
38197;BME280;26543;51.976;4.616;2023-05-07T09:04:57;52520.72;;;-140.72;100.00
38197;BME280;26543;51.976;4.616;2023-05-07T09:07:22;52498.41;;;-140.72;100.00
38197;BME280;26543;51.976;4.616;2023-05-07T09:09:47;52484.19;;;-140.72;100.00
38197;BME280;26543;51.976;4.616;2023-05-07T09:12:13;52522.75;;;-140.72;100.00
38197;BME280;26543;51.976;4.616;2023-05-07T09:14:38;52508.56;;;-140.72;100.00
38197;BME280;26543;51.976;4.616;2023-05-07T09:17:04;52502.47;;;-140.72;100.00
38197;BME280;26543;51.976;4.616;2023-05-07T09:19:29;52490.28;;;-140.72;100.00
38197;BME280;26543;51.976;4.616;2023-05-07T09:22:01;52467.97;;;-140.72;100.00
38197;BME280;26543;51.976;4.616;2023-05-07T09:24:26;52490.28;;;-140.72;100.00
38197;BME280;26543;51.976;4.616;2023-05-07T09:26:53;52492.31;;;-140.72;100.00
38197;BME280;26543;51.976;4.616;2023-05-07T09:29:20;52508.56;;;-140.72;100.00
38197;BME280;26543;51.976;4.616;2023-05-07T09:31:45;52506.53;;;-140.72;100.00
38197;BME280;26543;51.976;4.616;2023-05-07T09:34:11;52516.66;;;-140.72;100.00
38197;BME280;26543;51.976;4.616;2023-05-07T09:36:36;52516.66;;;-140.72;100.00
38197;BME280;26543;51.976;4.616;2023-05-07T09:39:01;52512.59;;;-140.72;100.00
38197;BME280;26543;51.976;4.616;2023-05-07T09:41:27;52478.13;;;-140.72;100.00
38197;BME280;26543;51.976;4.616;2023-05-07T09:43:55;52514.63;;;-140.72;100.00
38197;BME280;26543;51.976;4.616;2023-05-07T09:46:21;52524.78;;;-140.72;100.00
38197;BME280;26543;51.976;4.616;2023-05-07T09:48:50;52585.66;;;-140.72;100.00
38197;BME280;26543;51.976;4.616;2023-05-07T09:53:45;52565.38;;;-140.72;100.00
38197;BME280;26543;51.976;4.616;2023-05-07T09:56:11;52476.09;;;-140.72;100.00
38197;BME280;26543;51.976;4.616;2023-05-07T09:58:37;52480.16;;;-140.72;100.00
38197;BME280;26543;51.976;4.616;2023-05-07T10:01:06;52398.97;;;-140.72;100.00
38197;BME280;26543;51.976;4.616;2023-05-07T10:03:31;52380.72;;;-140.72;100.00
38197;BME280;26543;51.976;4.616;2023-05-07T10:05:58;52370.56;;;-140.72;100.00
38197;BME280;26543;51.976;4.616;2023-05-07T10:08:24;52344.19;;;-140.72;100.00
38197;BME280;26543;51.976;4.616;2023-05-07T10:10:49;52340.13;;;-140.72;100.00
38197;BME280;26543;51.976;4.616;2023-05-07T10:13:15;52321.88;;;-140.72;100.00
38197;BME280;26543;51.976;4.616;2023-05-07T10:15:41;52291.44;;;-140.72;100.00
38197;BME280;26543;51.976;4.616;2023-05-07T10:18:06;52315.78;;;-140.72;100.00
38197;BME280;26543;51.976;4.616;2023-05-07T10:20:33;52327.97;;;-140.72;71.58
38197;BME280;26543;51.976;4.616;2023-05-07T10:22:59;52303.59;;;-140.72;59.15
38197;BME280;26543;51.976;4.616;2023-05-07T10:25:31;52325.94;;;-140.72;0.00
38197;BME280;26543;51.976;4.616;2023-05-07T10:28:00;52269.13;;;-140.72;0.00
38197;BME280;26543;51.976;4.616;2023-05-07T10:33:04;52252.88;;;-140.72;0.00
38197;BME280;26543;51.976;4.616;2023-05-07T10:35:37;52242.75;;;-140.72;0.00
38197;BME280;26543;51.976;4.616;2023-05-07T10:38:04;52228.53;;;-140.72;0.00
38197;BME280;26543;51.976;4.616;2023-05-07T10:40:30;52244.78;;;-140.72;0.00
38197;BME280;26543;51.976;4.616;2023-05-07T10:42:59;52236.66;;;-140.72;0.00
38197;BME280;26543;51.976;4.616;2023-05-07T10:45:25;52250.84;;;-140.72;0.00
38197;BME280;26543;51.976;4.616;2023-05-07T10:50:31;52224.47;;;-140.72;0.00
38197;BME280;26543;51.976;4.616;2023-05-07T10:55:40;52198.09;;;-140.72;0.00
38197;BME280;26543;51.976;4.616;2023-05-07T10:58:38;52214.34;;;-140.72;0.00
38197;BME280;26543;51.976;4.616;2023-05-07T11:01:01;52228.53;;;-140.72;0.00
38197;BME280;26543;51.976;4.616;2023-05-07T11:03:27;52263.03;;;-140.72;0.00
38197;BME280;26543;51.976;4.616;2023-05-07T11:11:17;52378.69;;;-140.72;0.00
38197;BME280;26543;51.976;4.616;2023-05-07T11:13:43;52342.16;;;-140.72;0.00
38197;BME280;26543;51.976;4.616;2023-05-07T11:16:19;52370.56;;;-140.72;0.00
38197;BME280;26543;51.976;4.616;2023-05-07T11:18:48;52388.84;;;-140.72;0.00
38197;BME280;26543;51.976;4.616;2023-05-07T11:21:36;52382.75;;;-140.72;0.00
38197;BME280;26543;51.976;4.616;2023-05-07T11:24:01;52388.84;;;-140.72;0.00
38197;BME280;26543;51.976;4.616;2023-05-07T11:26:27;52396.94;;;-140.72;0.00
38197;BME280;26543;51.976;4.616;2023-05-07T11:28:52;52403.03;;;-140.72;0.00
38197;BME280;26543;51.976;4.616;2023-05-07T11:31:22;52394.91;;;-140.72;0.00
38197;BME280;26543;51.976;4.616;2023-05-07T11:33:48;52431.44;;;-140.72;0.00
38197;BME280;26543;51.976;4.616;2023-05-07T11:36:13;52419.28;;;-140.72;0.00
38197;BME280;26543;51.976;4.616;2023-05-07T11:38:39;52405.06;;;-140.72;0.00
38197;BME280;26543;51.976;4.616;2023-05-07T11:41:04;52398.97;;;-140.72;0.00
38197;BME280;26543;51.976;4.616;2023-05-07T11:43:30;52409.13;;;-140.72;0.00
38197;BME280;26543;51.976;4.616;2023-05-07T11:45:58;52403.03;;;-140.72;0.00
38197;BME280;26543;51.976;4.616;2023-05-07T11:48:29;52459.84;;;-140.72;0.00
38197;BME280;26543;51.976;4.616;2023-05-07T11:53:26;52401.00;;;-140.72;0.00
38197;BME280;26543;51.976;4.616;2023-05-07T11:55:52;52437.53;;;-140.72;0.00
38197;BME280;26543;51.976;4.616;2023-05-07T11:58:20;52478.13;;;-140.72;0.00
38197;BME280;26543;51.976;4.616;2023-05-07T12:00:53;52435.50;;;-140.72;0.00
38197;BME280;26543;51.976;4.616;2023-05-07T12:03:18;52459.84;;;-140.72;8.16
38197;BME280;26543;51.976;4.616;2023-05-07T12:05:44;52478.13;;;-140.72;0.00
38197;BME280;26543;51.976;4.616;2023-05-07T12:08:13;52500.44;;;-140.72;0.00
38197;BME280;26543;51.976;4.616;2023-05-07T12:10:42;52492.31;;;-140.72;32.87
38197;BME280;26543;51.976;4.616;2023-05-07T12:13:14;52427.38;;;-140.72;0.00
38197;BME280;26543;51.976;4.616;2023-05-07T12:15:39;52447.69;;;-140.72;0.00
38197;BME280;26543;51.976;4.616;2023-05-07T12:18:05;52476.09;;;-140.72;0.00
38197;BME280;26543;51.976;4.616;2023-05-07T12:20:30;52480.16;;;-140.72;0.00
38197;BME280;26543;51.976;4.616;2023-05-07T12:22:55;52394.91;;;-140.72;0.00
38197;BME280;26543;51.976;4.616;2023-05-07T12:25:21;52342.16;;;-140.72;0.00
38197;BME280;26543;51.976;4.616;2023-05-07T12:27:51;52305.63;;;-140.72;0.00
38197;BME280;26543;51.976;4.616;2023-05-07T12:30:16;52325.94;;;-140.72;0.00
38197;BME280;26543;51.976;4.616;2023-05-07T12:32:42;52323.91;;;-140.72;0.00
38197;BME280;26543;51.976;4.616;2023-05-07T12:35:10;52392.88;;;-140.72;0.00
38197;BME280;26543;51.976;4.616;2023-05-07T12:37:35;52411.16;;;-140.72;0.00
38197;BME280;26543;51.976;4.616;2023-05-07T12:40:10;52403.03;;;-140.72;0.00
38197;BME280;26543;51.976;4.616;2023-05-07T12:42:36;52437.53;;;-140.72;0.00
38197;BME280;26543;51.976;4.616;2023-05-07T12:45:11;52461.88;;;-140.72;0.00
38197;BME280;26543;51.976;4.616;2023-05-07T12:47:37;52470.00;;;-140.72;0.00